Timeline UpdatesTrip UpdatesNews PostsPvt PostsTravel TipsAdmin PostsConv PostsFollowed PostsChat RequestsBlog PostsPNR Posts

Disclaimer
Search
 
 
Tue Sep 30, 2014 11:27:16 ISTHomeTrainsΣChainsAtlasPNRForumGalleryNewsFAQTripsMembersLoginFeedback
No Recent News for this Train
Other Trains in the News **new
Latest...
Temporary Stop at Vindhyachal (BDL) for 2 minutes from 25/9/14-6/10/14 #1223333.
Wed Sep 24, 2014 (11:33PM)
⇐ Return Journey: Train# 15647

15648/Guwahati-Mumbai LTT Weekly Express

Time-Table HAS CHANGED.
Sep 24 (11:33PM)
Change Departure Station:
Change Arrival Station:
Post a Train Travel TipPost a Train Travel Tip **new
Post a Comment/Question/Picture/VideoPost a Comment/Question/Picture/Video
Pantry/Catering
✓ Pantry Car Avbl
✓ Catering Avbl
RSA - Rake Sharing
Rake/Coach Composition
2A-1, 3A-3, PC-1, SL-12, GEN-3, SLR-2= 22 coach
Loco
GHY-ET ET WDMx
News    PNR    Forum    Time-Table    Availability    Fare Chart    Map    Arr/Dep History    Trips    Gallery    ΣChains    X/O    Timeline    
Travel Time: 46h 25m    46 halts    Distance: 2397 km    Avg Speed: 51 km/hr
Type: Mail/Express
Zone: NFR/Northeast Frontier
Departs @ 21:35 (Avg 23m late)
Platform# ???
  T    
Dhupguri/DQG 
Arrives @ 20:00 +2 nights (Avg 29m late)
Platform# 5
    T  
Mumbai Lokmanya Tilak Terminus/LTT 

46 halts. 390 intermediate Stations between Dhupguri and Mumbai Lokmanya Tilak Terminus

Show ALL intermediate Stations  Show Old Time-Table

#CodeStation NameX/OArrivesAvgDepartsAvgHaltPFDay#KmSpeedElevZoneAddress
1GHYGuwahati (7)  -15:00+2--1-342.12660mNFRGuwahati, Assam
2KYQKamakhya Junction (4)  15:16+015:17+41m--1-335.15755mNFRDist - KAMRUP, Assam
3RNYRangiya Junction (5)  16:15 16:00+1816:25 16:10+2010m--1-294.54158mNFRRangia, Assam
4BPRDBarpeta Road  17:49 17:44+317:50 17:45+51m--1-229.65949mNFRHowli, Assam
5NBQNew Bongaigaon Junction (4)  18:30+418:40+310m--1-185.57158mNFR783381., Assam
6NOQNew Alipurduar (2)  20:05 20:10+920:10 20:15+125m--1-78.84548mNFRDist - Alipurduar - 736121, West Bengal
7NCBNew Cooch Behar Junction (5)X  20:40+620:45+105m--1-60.28047mNFRDist : Cooch Behar-736101, West Bengal
8DQGDhupguri (2)»  21:30+2421:35+235m--10.03675mNFRDist - Jalpaiguri, West Bengal
9NJPNew Jalpaiguri Junction (8)  23:25+023:40+215m--165.375114mNFRCity-Siliguri . Dist-Jalpaiguri, West Bengal
10KNEKishanGanj (3)X  00:50+800:55+85m--2152.74952mNFRKishanganj, Bihar
11MLDTMalda Town (5)X  03:55+604:10+615m--2300.86630mERDist - Malda, West Bengal
12NFKNew Farakka Junction (3)X  04:42+1304:44+132m12335.92632mERDist - Murshidabad, West Bengal
13BHWBarharwa Junction (3)X  05:26-205:30+04m12353.95036mERBarharwa, Jharkhand
14SBGSahibganj Junction (3)  06:35+306:43+78m22408.37138mERSahibganj, Jharkhand
15CLGKahalgaon (2)  07:20+2907:21+301m22452.24644mERBhagalpur, Bihar
16BGPBhagalpur Junction (6)  08:00+2508:15+2015m--2482.37549mERBhagalpur, Bihar
17SGGSultanGanj (3)  08:35+2308:36+241m--2507.35142mERSultanganj, Bihar
18BUPBariarpur (3)  08:57+2008:58+211m--2525.21342mERMunger, Bihar
19JMPJamalpur Junction (4)X  09:48+510:03+815m--2536.36959mERJamalpur 06344-243101, Bihar
20AHAAbhaipur (3)X  10:22+1510:23+161m--2558.23352mERAbhaipur, Bihar
21KIULKiul Junction (5)X  11:05+311:10+55m--2581.21253mECRDist. Lakhisarai, Bihar
22LKRLuckeesarai Junction (2)X  11:17+711:18+81m242582.56552mECRLakhisarai, Bihar
23BRYABarhiya (3)  11:32+911:33+101m--2597.65647mECRBarahiya, Bihar
24HTZHathidah Junction (2)  11:43+1411:44+141m22607.04650mECRMusahari, Bihar
25MKAMokama Junction (4)  11:55+1511:57+162m--2615.45148mECRPatna, Bihar
26BARHBarh (3)  12:27+612:28+101m--2641.14549mECRBarh, Bihar
27BKPBakhtiyarpur Junction (5)  12:52+012:54+52m--2659.25951mECRPatna, Bihar
28KOOKhusropur (2)X  13:09+1013:10+121m--2674.05652mECRPatna, Bihar
29FUTFatwa (6)XO  13:19+813:20+91m--2682.57353mECRPatna, Bihar
30PNCPatna Saheb (3)X  13:30+1113:31+121m--2694.73159mECRPatna 800008, Bihar
31PNBEPatna Junction (10)  13:50+1014:00+910m--2704.63857mECRPatna 800001, Bihar
32DNRDanapur (5)X  14:15+1314:25+1410m--2714.07758mECRKhagaul, Bihar
33ARAAra Junction (3)  14:54 14:56+1814:59 15:01+175m--2753.510863mECRarrah( 06182-233411), Bihar
34DUREDumraon (3)  15:30+3315:31+341m--2805.7-70mECRDumraon, Bihar
35BXRBuxar (3)X  15:56 15:32+3016:00 15:33+294 1m--2822.04067mECRBuxar, Bihar
36DLNDildarnagar Junction (2)  16:28+3216:30+382m--2858.24972mECRDildarnagar, Uttar Pradesh
37MGSMughal Sarai Junction (8)  17:40+1017:55+1115m--2916.06483mECRMughalsarai 232101, Uttar Pradesh
38MZPMirzapur (3)X  18:54+4718:55+521m--2979.16188mNCRMirzapur, Uttar Pradesh
39COIChheoki Junction (3)  20:14+3920:15+421m--21059.66296mNCRDist.-Allahabad, Uttar Pradesh
40STASatna Junction (3)X  23:00+1:2923:10+1:2710m121229.579322mWCRSatna, Madhya Pradesh
41KTEKatni Junction (6)X  00:25-00:30-5m--31327.968387mWCRKatni, Madhya Pradesh
42JBPJabalpur Junction (4)X  01:50+3402:00+3410m131418.855416mWCRJabalpur, Madhya Pradesh
43PPIPipariya (3)X  05:13+1:3805:15+1:372m--31596.535338mWCRPiparia, Madhya Pradesh
44ETItarsi Junction (7)X07:10+3407:20+3310m--31663.789329mWCRItarsi 461111, Madhya Pradesh
45HDHarda (3)  08:11-08:12-1m--31739.560289mWCRHarda, Madhya Pradesh
46KNWKhandwa Junction (5)X  10:00+010:05+05m--31847.277310mCRKhandwa, Madhya Pradesh
47BAUBurhanpur (2)  10:59-11:00-1m131916.073269mCRBurhanpur, Madhya Pradesh
48BSLBhusaval Junction (8)XO  11:50 11:45+4612:00 11:55+4510m--31970.587208mCRBhusaval 425201, Maharashtra
49MMRManmad Junction (6)  14:05 14:02+1:1214:10 14:05+1:105 3m332154.755580mCRManmad 423104, Maharashtra
50NKNasik Road (3)X  15:24+4015:25+391m332227.538563mCRNashik 422101, Maharashtra
51DVLDevlali (3)X  15:34-15:35-1m232233.230561mCRDist. Nashik 422401, Maharashtra
52IGPIgatpuri (4)X17:04+017:05+01m--32278.147589mCRIgatpuri 422403, Maharashtra
53KYNKalyan Junction (8)X  19:00 18:50+2319:05 18:54+235 4m632359.94910mCRKalyan 421301, Maharashtra
54TNAThane (10)X  19:24 19:19+519:25 19:20+51m832380.12510mCRThane (West) 400602, Maharashtra
55LTTMumbai Lokmanya Tilak Terminus (5)•  20:00+29-532396.6-7mCRMumbai - 400089, Maharashtra
Scroll to Top
Scroll to Bottom